createdAt,value
2022-12-13T00:00:09.192Z,62.25
2022-12-13T00:05:15.106Z,62.26
2022-12-13T00:10:18.280Z,63.07
2022-12-13T00:15:21.880Z,62.82
2022-12-13T00:20:27.171Z,64.73
2022-12-13T00:25:30.813Z,66.59
2022-12-13T00:30:34.492Z,66.91
2022-12-13T00:35:43.181Z,66.90
2022-12-13T00:40:46.819Z,65.98
2022-12-13T00:45:53.637Z,67.03
2022-12-13T00:50:58.906Z,67.46
2022-12-13T00:56:02.601Z,69.23
2022-12-13T01:01:08.471Z,71.74
2022-12-13T01:06:18.536Z,73.58
2022-12-13T01:11:22.474Z,73.56
2022-12-13T01:16:26.163Z,72.83
2022-12-13T01:21:32.520Z,74.30
2022-12-13T01:26:35.440Z,75.97
2022-12-13T01:31:39.032Z,75.44
2022-12-13T01:36:45.796Z,74.52
2022-12-13T01:41:51.177Z,74.99
2022-12-13T01:46:54.906Z,76.82
2022-12-13T01:52:06.463Z,78.80
2022-12-13T01:57:11.212Z,79.22
2022-12-13T02:02:15.851Z,79.12
2022-12-13T02:07:24.964Z,79.86
2022-12-13T02:12:30.723Z,79.07
2022-12-13T02:17:45.652Z,79.94
2022-12-13T02:23:14.089Z,80.85
2022-12-13T02:28:40.849Z,81.40
2022-12-13T02:33:53.243Z,81.19
2022-12-13T02:39:02.212Z,80.14
2022-12-13T02:44:22.489Z,79.48
2022-12-13T02:49:33.392Z,79.65
2022-12-13T02:54:38.331Z,79.04
2022-12-13T02:59:46.779Z,78.91
2022-12-13T03:05:05.178Z,78.45
2022-12-13T03:10:16.119Z,77.87
2022-12-13T03:15:26.834Z,78.10
2022-12-13T03:20:32.248Z,78.47
2022-12-13T03:25:35.997Z,79.20
2022-12-13T03:30:39.997Z,80.38
2022-12-13T03:35:46.049Z,80.20
2022-12-13T03:40:50.511Z,80.00
2022-12-13T03:45:54.673Z,79.92
2022-12-13T03:51:00.710Z,80.52
2022-12-13T03:56:06.409Z,80.84
2022-12-13T04:01:12.961Z,80.98
2022-12-13T04:06:21.749Z,81.46
2022-12-13T04:11:27.023Z,80.24
2022-12-13T04:16:30.665Z,80.04
2022-12-13T04:21:35.974Z,80.26
2022-12-13T04:26:39.588Z,80.13
2022-12-13T04:31:44.026Z,80.38
2022-12-13T04:36:49.303Z,80.43
2022-12-13T04:41:53.561Z,80.75
2022-12-13T04:47:01.121Z,80.88
2022-12-13T04:52:07.608Z,81.23
2022-12-13T04:57:12.543Z,81.21
2022-12-13T05:02:23.956Z,80.99
2022-12-13T05:07:29.780Z,80.53
2022-12-13T05:12:33.464Z,80.97
2022-12-13T05:17:37.050Z,81.56
2022-12-13T05:22:42.329Z,81.06
2022-12-13T05:27:45.929Z,81.45
2022-12-13T05:32:49.531Z,81.02
2022-12-13T05:37:55.478Z,81.62
2022-12-13T05:43:01.497Z,81.90
2022-12-13T05:48:05.740Z,81.83
2022-12-13T05:53:12.657Z,81.58
2022-12-13T05:58:16.404Z,81.76
2022-12-13T06:03:27.133Z,82.43
2022-12-13T06:08:33.145Z,81.76
2022-12-13T06:13:42.895Z,80.77
2022-12-13T06:18:47.077Z,81.99
2022-12-13T06:23:56.568Z,82.05
2022-12-13T06:29:00.218Z,81.74
2022-12-13T06:34:14.465Z,82.25
2022-12-13T06:39:20.705Z,82.62
2022-12-13T06:44:24.339Z,82.08
2022-12-13T06:49:32.462Z,81.97
2022-12-13T06:54:37.930Z,82.44
2022-12-13T06:59:41.940Z,82.89
2022-12-13T07:04:45.783Z,82.01
2022-12-13T07:09:51.027Z,81.80
2022-12-13T07:14:55.394Z,83.11
2022-12-13T07:20:01.254Z,83.04
2022-12-13T07:25:07.417Z,82.58
2022-12-13T07:30:31.896Z,82.99
2022-12-13T07:35:37.021Z,83.25
2022-12-13T07:40:43.063Z,82.02
2022-12-13T07:45:46.693Z,82.70
2022-12-13T07:50:54.744Z,83.10
2022-12-13T07:56:02.643Z,82.32
2022-12-13T08:01:07.657Z,82.82
2022-12-13T08:06:12.689Z,82.76
2022-12-13T08:11:18.204Z,82.76
2022-12-13T08:16:26.126Z,83.21
2022-12-13T08:27:02.925Z,82.79
2022-12-13T08:32:08.229Z,83.15
2022-12-13T08:37:11.878Z,83.06
2022-12-13T08:42:20.336Z,83.06
2022-12-13T08:47:26.647Z,83.31
2022-12-13T08:52:30.636Z,83.54
2022-12-13T08:57:36.923Z,83.02
2022-12-13T09:02:40.581Z,83.56
2022-12-13T09:07:44.252Z,85.24
2022-12-13T09:12:49.558Z,82.97
2022-12-13T09:17:53.341Z,82.80
2022-12-13T09:23:01.217Z,83.99
2022-12-13T09:28:07.513Z,84.07
2022-12-13T09:33:29.061Z,83.85
2022-12-13T09:38:35.832Z,83.58
2022-12-13T09:43:44.057Z,83.42
2022-12-13T09:48:48.657Z,83.56
2022-12-13T09:53:55.105Z,83.97
2022-12-13T09:59:00.411Z,83.58
2022-12-13T10:04:04.052Z,83.85
2022-12-13T10:09:10.957Z,84.22
2022-12-13T10:14:23.596Z,83.69
2022-12-13T10:19:31.614Z,84.12
2022-12-13T10:24:51.693Z,83.85
2022-12-13T10:30:03.789Z,83.96
2022-12-13T10:35:22.160Z,83.05
2022-12-13T10:40:32.643Z,83.86
2022-12-13T10:45:40.309Z,84.72
2022-12-13T10:50:44.026Z,83.21
2022-12-13T10:55:55.547Z,83.75
2022-12-13T11:01:10.388Z,83.83
2022-12-13T11:06:15.911Z,83.69
2022-12-13T11:11:27.316Z,83.66
2022-12-13T11:16:35.833Z,84.49
2022-12-13T11:21:40.595Z,84.29
2022-12-13T11:26:53.948Z,83.34
2022-12-13T11:32:08.694Z,83.40
2022-12-13T11:37:23.698Z,84.83
2022-12-13T11:42:31.472Z,83.66
2022-12-13T11:47:40.232Z,83.79
2022-12-13T11:52:50.263Z,84.05
2022-12-13T11:57:59.926Z,84.20
2022-12-13T12:03:19.094Z,85.36
2022-12-13T12:08:31.994Z,84.92
2022-12-13T12:13:51.582Z,83.49
2022-12-13T12:19:01.170Z,83.80
2022-12-13T12:24:20.958Z,85.22
2022-12-13T12:29:53.015Z,83.95
2022-12-13T12:35:11.872Z,84.94
2022-12-13T12:41:15.140Z,84.41
2022-12-13T12:46:23.789Z,84.31
2022-12-13T12:51:37.578Z,84.29
2022-12-13T12:56:52.796Z,83.48
2022-12-13T13:02:05.179Z,84.26
2022-12-13T13:07:23.171Z,83.22
2022-12-13T13:12:30.301Z,83.03
2022-12-13T13:17:47.721Z,83.32
2022-12-13T13:23:25.228Z,83.04
2022-12-13T13:28:22.174Z,83.81
2022-12-13T13:33:45.296Z,84.17
2022-12-13T13:38:54.885Z,84.65
2022-12-13T13:44:02.205Z,84.37
2022-12-13T13:49:12.287Z,83.44
2022-12-13T13:54:46.934Z,84.11
2022-12-13T14:00:14.011Z,84.72
2022-12-13T14:05:28.499Z,83.70
2022-12-13T14:10:50.775Z,84.08
2022-12-13T14:16:26.074Z,84.28
2022-12-13T14:21:56.073Z,84.34
2022-12-13T14:27:13.443Z,84.93
2022-12-13T14:32:26.381Z,84.00
2022-12-13T14:37:32.550Z,84.20
2022-12-13T14:42:38.016Z,84.60
2022-12-13T14:47:42.340Z,84.73
2022-12-13T14:52:47.489Z,85.92
2022-12-13T14:57:56.309Z,85.21
2022-12-13T15:03:02.163Z,85.82
2022-12-13T15:08:11.460Z,85.42
2022-12-13T15:13:29.030Z,86.04
2022-12-13T15:18:33.388Z,86.20
2022-12-13T15:23:49.109Z,86.00
2022-12-13T15:28:56.864Z,85.48
2022-12-13T15:34:28.569Z,86.19
2022-12-13T15:39:38.752Z,84.99
2022-12-13T15:44:48.246Z,84.81
2022-12-13T15:49:54.109Z,84.37
2022-12-13T15:54:59.440Z,84.19
2022-12-13T16:00:30.652Z,85.19
2022-12-13T16:05:37.507Z,84.66
2022-12-13T16:10:46.207Z,84.43
2022-12-13T16:15:52.794Z,84.57
2022-12-13T16:21:04.640Z,84.99
2022-12-13T16:26:11.482Z,84.13
2022-12-13T16:31:18.751Z,83.39
2022-12-13T16:36:22.357Z,87.31
2022-12-13T16:41:26.153Z,82.44
2022-12-13T16:47:14.155Z,81.18
2022-12-13T16:51:55.481Z,81.13
2022-12-13T16:56:59.089Z,81.23
2022-12-13T17:02:04.416Z,81.35
2022-12-13T17:07:09.410Z,80.68
2022-12-13T17:12:13.055Z,80.49
2022-12-13T17:17:19.315Z,81.81
2022-12-13T17:22:23.031Z,81.60
2022-12-13T17:27:26.749Z,81.56
2022-12-13T17:32:32.057Z,80.41
2022-12-13T17:37:35.842Z,79.65
2022-12-13T17:42:39.474Z,79.78
2022-12-13T17:47:45.876Z,79.48
2022-12-13T17:52:48.709Z,80.81
2022-12-13T17:57:52.316Z,80.46
2022-12-13T18:02:59.292Z,79.52
2022-12-13T18:08:02.995Z,80.68
2022-12-13T18:13:06.614Z,77.84
2022-12-13T18:18:12.842Z,78.44
2022-12-13T18:23:16.697Z,77.44
2022-12-13T18:28:20.279Z,76.56
2022-12-13T18:33:26.130Z,75.00
2022-12-13T18:38:36.202Z,74.63
2022-12-13T18:43:40.655Z,72.03
2022-12-13T18:48:46.778Z,73.19
2022-12-13T18:53:51.243Z,71.75
2022-12-13T18:58:55.328Z,71.23
2022-12-13T19:04:00.622Z,71.81
2022-12-13T19:09:04.293Z,71.32
2022-12-13T19:14:07.874Z,70.96
2022-12-13T19:19:13.115Z,70.21
2022-12-13T19:24:16.712Z,70.00
2022-12-13T19:29:20.385Z,71.75
2022-12-13T19:34:25.671Z,71.20
2022-12-13T19:39:29.257Z,68.74
2022-12-13T19:44:32.855Z,68.66
2022-12-13T19:49:38.093Z,67.62
2022-12-13T19:54:41.864Z,66.34
2022-12-13T19:59:45.487Z,66.79
2022-12-13T20:04:50.814Z,66.73
2022-12-13T20:09:54.454Z,66.95
2022-12-13T20:14:59.151Z,66.57
2022-12-13T20:20:05.045Z,65.49
2022-12-13T20:25:09.594Z,66.37
2022-12-13T20:30:13.933Z,66.76
2022-12-13T20:35:19.629Z,67.05
2022-12-13T20:40:26.288Z,66.41
2022-12-13T20:45:30.166Z,64.70
2022-12-13T20:50:35.466Z,64.50
2022-12-13T20:55:39.087Z,64.73
2022-12-13T21:00:42.780Z,63.94
2022-12-13T21:05:48.260Z,63.27
2022-12-13T21:10:51.855Z,63.50
2022-12-13T21:15:55.656Z,63.58
2022-12-13T21:21:00.927Z,62.84
2022-12-13T21:26:05.428Z,62.44
2022-12-13T21:31:10.791Z,62.25
2022-12-13T21:36:18.905Z,60.77
2022-12-13T21:41:22.808Z,62.02
2022-12-13T21:46:41.405Z,62.48
2022-12-13T21:51:53.241Z,60.72
2022-12-13T21:56:56.813Z,61.07
2022-12-13T22:02:02.322Z,63.45
2022-12-13T22:07:08.609Z,63.84
2022-12-13T22:12:19.881Z,64.17
2022-12-13T22:17:31.052Z,64.46
2022-12-13T22:22:39.385Z,64.75
2022-12-13T22:27:43.032Z,66.10
2022-12-13T22:32:46.616Z,65.79
2022-12-13T22:37:51.958Z,66.23
2022-12-13T22:42:55.541Z,65.99
2022-12-13T22:47:59.162Z,66.22
2022-12-13T22:53:04.479Z,67.30
2022-12-13T22:58:08.073Z,68.31
2022-12-13T23:03:11.690Z,69.84
2022-12-13T23:08:16.962Z,70.51
2022-12-13T23:13:20.599Z,70.11
2022-12-13T23:18:24.599Z,70.97
2022-12-13T23:23:30.729Z,72.32
2022-12-13T23:28:34.374Z,73.00
2022-12-13T23:33:38.787Z,73.69
2022-12-13T23:38:44.512Z,74.43
2022-12-13T23:43:48.693Z,74.33
2022-12-13T23:48:52.543Z,74.79
2022-12-13T23:53:58.669Z,75.77
2022-12-13T23:59:02.267Z,76.63
